M Y Odessa — ZCYV3 — position and weather

sailwx.info

Track history (hours):
 
Tides and Currents Weather Stations Pressure Air Temp Water Temp Dewpoint Dewpoint Depression Visibility Wind Speed Wind Dir Waves Ship Positions

M Y Odessa

Last reported at 2017-Jul-23 11:37 UTC. Time now 2017-Jul-23 18:34 UTC.
Position N 40°43' E 014°29'.

Length 48 m; draft 2.4 m.

Type: Pleasure craft. MMSI: 319010700.

Date/timePositionNaut miles runAvg speedWind from/ knotsBaromVisibWave heightAir tempDewpointWater temp
2017-Jul-23 11:37N 40°43' E 014°29'2 0.1
2017-Jul-22 06:45N 40°43' E 014°26'310.0
2017-Jul-22 06:30N 40°42' E 014°23'4 8.3
2017-Jul-22 06:00N 40°41' E 014°18'4 8.3
2017-Jul-22 05:31N 40°41' E 014°12'4 8.2
2017-Jul-22 05:01N 40°40' E 014°07'4 8.7
2017-Jul-22 04:30N 40°39' E 014°01'611.1
2017-Jul-22 04:01N 40°39' E 013°54'611.0
2017-Jul-22 03:30N 40°38' E 013°47'611.1
2017-Jul-22 03:00N 40°38' E 013°39'611.3
2017-Jul-22 02:31N 40°39' E 013°32'16811.0
2017-Jul-21 11:12N 41°01' E 009°51'210.9
2017-Jul-21 11:00N 41°01' E 009°48'  
Track history (hours):
 
Tides and Currents Weather Stations Pressure Air Temp Water Temp Dewpoint Dewpoint Depression Visibility Wind Speed Wind Dir Waves Ship Positions

M Y Odessa

Last reported at 2017-Jul-23 11:37 UTC. Time now 2017-Jul-23 18:34 UTC.
Position N 40°43' E 014°29'.

Length 48 m; draft 2.4 m.

Type: Pleasure craft. MMSI: 319010700.

Date/timePositionNaut miles runAvg speedWind from/ knotsBaromVisibWave heightAir tempDewpointWater temp
2017-Jul-23 11:37N 40°43' E 014°29'2 0.1
2017-Jul-22 06:45N 40°43' E 014°26'310.0
2017-Jul-22 06:30N 40°42' E 014°23'4 8.3
2017-Jul-22 06:00N 40°41' E 014°18'4 8.3
2017-Jul-22 05:31N 40°41' E 014°12'4 8.2
2017-Jul-22 05:01N 40°40' E 014°07'4 8.7
2017-Jul-22 04:30N 40°39' E 014°01'611.1
2017-Jul-22 04:01N 40°39' E 013°54'611.0
2017-Jul-22 03:30N 40°38' E 013°47'611.1
2017-Jul-22 03:00N 40°38' E 013°39'611.3
2017-Jul-22 02:31N 40°39' E 013°32'16811.0
2017-Jul-21 11:12N 41°01' E 009°51'210.9
2017-Jul-21 11:00N 41°01' E 009°48'  

Dump ship's entire track history